Time;durP1;ratioP1;P1;durP2;ratioP2;P2;SDS_P1;SDS_P2;PMS_P1;PMS_P2;Temp;Humidity;BMP_temperature;BMP_pressure;BME280_temperature;BME280_humidity;BME280_pressure;Samples;Min_cycle;Max_cycle;Signal;HPM_P1;HPM_P2
2022/09/10 00:00:37;;;;;;;10.68;4.60;;;;;;;14.69;95.77;100852.03;5097255;28;20135;-80
2022/09/10 00:03:03;;;;;;;13.77;4.95;;;;;;;14.72;95.98;100849.34;5097323;28;20027;-80
2022/09/10 00:05:28;;;;;;;10.38;4.70;;;;;;;14.74;95.57;100851.09;5096933;28;20032;-80
2022/09/10 00:07:53;;;;;;;12.82;4.53;;;;;;;14.79;95.71;100859.06;5097170;28;20032;-80
2022/09/10 00:10:20;;;;;;;13.20;4.75;;;;;;;14.76;96.02;100851.09;5097279;28;20521;-80
2022/09/10 00:12:47;;;;;;;13.38;4.68;;;;;;;14.77;95.68;100844.84;5097167;28;20488;-80
2022/09/10 00:15:13;;;;;;;11.55;5.00;;;;;;;14.81;96.13;100854.59;5097585;28;20070;-80
2022/09/10 00:17:38;;;;;;;13.05;4.97;;;;;;;14.79;96.33;100837.78;5097082;28;20474;-80
2022/09/10 00:20:05;;;;;;;9.60;4.55;;;;;;;14.80;96.44;100842.19;5079661;28;20118;-80
2022/09/10 00:22:32;;;;;;;11.30;4.60;;;;;;;14.84;95.88;100840.41;5096885;28;20493;-81
2022/09/10 00:24:58;;;;;;;11.52;4.50;;;;;;;14.86;96.14;100839.50;5096624;28;20043;-81
2022/09/10 00:27:24;;;;;;;8.65;4.15;;;;;;;14.85;96.13;100843.03;5096789;28;20032;-81
2022/09/10 00:29:53;;;;;;;13.00;4.28;;;;;;;14.85;96.00;100842.16;5096882;28;20024;-81
2022/09/10 00:32:20;;;;;;;12.48;4.88;;;;;;;14.89;95.93;100835.91;5097014;28;20489;-81
2022/09/10 00:34:46;;;;;;;13.82;5.20;;;;;;;14.83;95.90;100846.63;5096678;28;20032;-81
2022/09/10 00:37:13;;;;;;;11.15;5.22;;;;;;;14.85;96.07;100844.81;5097315;28;20351;-81
2022/09/10 00:39:39;;;;;;;12.18;5.53;;;;;;;14.81;96.26;100843.06;5096512;28;20028;-81
2022/09/10 00:42:04;;;;;;;13.73;5.55;;;;;;;14.78;96.34;100844.00;5096708;28;20118;-81
2022/09/10 00:44:38;;;;;;;10.45;5.40;;;;;;;14.83;96.42;100849.28;5096129;28;20035;-81
2022/09/10 00:47:13;;;;;;;18.02;5.30;;;;;;;14.75;96.58;100834.25;5096360;28;20133;-81
2022/09/10 00:49:46;;;;;;;12.57;5.70;;;;;;;14.73;96.67;100836.03;5096391;28;20115;-80
2022/09/10 00:52:11;;;;;;;9.55;5.18;;;;;;;14.74;96.62;100837.81;5097138;28;20043;-81
2022/09/10 00:54:38;;;;;;;12.65;5.20;;;;;;;14.70;96.81;100840.50;5096291;28;20032;-80
2022/09/10 00:57:11;;;;;;;11.80;4.95;;;;;;;14.74;96.84;100842.25;5096179;28;20035;-80
2022/09/10 00:59:37;;;;;;;;;;;;;;;14.80;95.98;100842.19;5096498;28;20118;-81
2022/09/10 01:02:03;;;;;;;11.43;4.93;;;;;;;14.77;96.18;100847.53;5096239;28;19912;-80
2022/09/10 01:04:31;;;;;;;10.90;5.43;;;;;;;14.71;96.93;100835.16;5095763;28;20483;-80
2022/09/10 01:06:58;;;;;;;8.18;5.07;;;;;;;14.71;96.63;100842.25;5095968;28;20031;-80
2022/09/10 01:09:24;;;;;;;11.95;5.22;;;;;;;14.72;97.09;100850.22;5096010;28;20496;-80
2022/09/10 01:11:52;;;;;;;16.90;5.72;;;;;;;14.73;97.13;100853.75;5061453;28;20043;-80
2022/09/10 01:15:06;;;;;;;10.25;5.32;;;;;;;14.72;97.36;100854.66;5095956;28;20031;-80
2022/09/10 01:17:44;;;;;;;12.77;5.00;;;;;;;14.73;97.32;100865.31;5086728;28;20131;-80
2022/09/10 01:20:37;;;;;;;13.73;5.70;;;;;;;14.69;97.58;100850.25;5096069;28;20073;-80
2022/09/10 01:23:21;;;;;;;14.55;5.47;;;;;;;14.74;97.62;100858.19;5096222;28;20109;-80
2022/09/10 01:26:13;;;;;;;10.15;5.53;;;;;;;14.78;97.85;100858.16;5095954;28;20036;-80
2022/09/10 01:28:48;;;;;;;16.30;5.85;;;;;;;14.78;98.11;100863.50;5095859;28;20043;-80
2022/09/10 01:31:22;;;;;;;13.13;6.03;;;;;;;14.74;98.33;100853.75;5095843;28;20386;-80
2022/09/10 01:33:56;;;;;;;17.80;6.18;;;;;;;14.69;98.83;100841.41;5095804;28;20035;-81
2022/09/10 01:36:26;;;;;;;17.50;6.13;;;;;;;14.80;98.77;100860.81;5095958;28;20063;-81
2022/09/10 01:38:52;;;;;;;12.88;6.40;;;;;;;14.80;98.58;100854.59;5095982;28;20450;-81
2022/09/10 01:41:22;;;;;;;14.63;5.95;;;;;;;14.83;99.01;100854.59;5095600;28;20036;-81
2022/09/10 01:43:47;;;;;;;14.90;6.30;;;;;;;14.84;98.33;100851.03;5095286;28;20031;-81
2022/09/10 01:46:57;;;;;;;15.00;6.43;;;;;;;14.85;98.80;100853.69;5095162;28;20043;-81
2022/09/10 01:50:00;;;;;;;16.17;6.18;;;;;;;14.90;99.09;100858.97;5075913;28;20048;-81
2022/09/10 01:52:48;;;;;;;15.50;6.60;;;;;;;14.88;99.10;100861.66;5095367;28;20032;-81
2022/09/10 01:55:42;;;;;;;13.85;6.47;;;;;;;14.88;99.18;100858.09;5095049;28;20036;-82
2022/09/10 01:58:45;;;;;;;13.70;6.45;;;;;;;14.90;99.65;100861.63;5094681;28;20062;-82
2022/09/10 02:01:35;;;;;;;15.93;6.85;;;;;;;14.90;99.54;100851.91;5095372;28;20047;-82
2022/09/10 02:04:05;;;;;;;14.90;6.55;;;;;;;14.89;99.63;100849.22;5094902;28;20024;-83
2022/09/10 02:06:35;;;;;;;19.98;6.45;;;;;;;14.91;100.00;100844.78;5096061;28;20107;-83
2022/09/10 02:09:02;;;;;;;11.95;6.68;;;;;;;14.93;100.00;100846.53;5095224;28;20038;-83
2022/09/10 02:11:28;;;;;;;17.23;6.72;;;;;;;14.87;99.89;100835.94;5094934;28;20430;-84
2022/09/10 02:13:54;;;;;;;16.88;6.82;;;;;;;14.95;100.00;100844.75;5095071;28;20075;-83
2022/09/10 02:16:36;;;;;;;20.38;7.15;;;;;;;14.95;100.00;100836.78;5094295;28;20454;-83
2022/09/10 02:19:02;;;;;;;;;;;;;;;15.02;99.58;100850.91;5095615;28;20042;-84
2022/09/10 02:21:28;;;;;;;14.52;6.90;;;;;;;15.00;99.97;100836.75;5095126;28;20026;-83
2022/09/10 02:23:56;;;;;;;12.73;6.65;;;;;;;14.99;100.00;100832.31;5095075;28;20059;-83
2022/09/10 02:26:24;;;;;;;16.15;7.32;;;;;;;15.03;100.00;100834.94;5094523;28;20382;-84
2022/09/10 02:28:50;;;;;;;18.25;7.25;;;;;;;14.99;100.00;100829.66;5094312;28;20042;-82
2022/09/10 02:31:17;;;;;;;17.92;7.53;;;;;;;15.02;100.00;100833.16;5094675;28;20032;-82
2022/09/10 02:33:43;;;;;;;23.35;7.65;;;;;;;15.09;100.00;100836.66;5094368;28;20090;-82
2022/09/10 02:36:08;;;;;;;14.80;7.82;;;;;;;15.09;100.00;100836.66;5094337;28;20040;-83
2022/09/10 02:38:33;;;;;;;17.08;7.90;;;;;;;15.08;100.00;100826.03;5094284;28;20432;-83
2022/09/10 02:40:59;;;;;;;15.73;8.10;;;;;;;15.07;100.00;100822.47;5094513;28;20126;-83
2022/09/10 02:43:26;;;;;;;19.00;7.97;;;;;;;15.02;100.00;100819.84;5094237;28;20024;-83
2022/09/10 02:45:58;;;;;;;18.88;7.85;;;;;;;15.04;100.00;100825.19;5094386;28;20059;-83
2022/09/10 02:48:25;;;;;;;15.43;7.72;;;;;;;15.09;100.00;100838.44;5094270;28;20035;-83
2022/09/10 02:50:51;;;;;;;17.20;8.38;;;;;;;15.09;100.00;100841.97;5094248;28;20039;-83
2022/09/10 02:53:17;;;;;;;15.05;7.90;;;;;;;15.04;100.00;100825.19;5094453;28;20517;-82
2022/09/10 02:55:46;;;;;;;17.17;8.18;;;;;;;15.06;100.00;100835.78;5094012;28;20059;-83
2022/09/10 02:58:14;;;;;;;14.73;8.13;;;;;;;15.11;100.00;100836.63;5093948;28;20085;-82
2022/09/10 03:00:40;;;;;;;16.60;8.15;;;;;;;15.10;100.00;100829.56;5093434;28;20059;-82
2022/09/10 03:03:06;;;;;;;15.38;8.50;;;;;;;15.09;100.00;100836.66;5093935;28;20032;-82
2022/09/10 03:05:32;;;;;;;19.40;8.30;;;;;;;15.09;100.00;100827.81;5093834;28;20031;-82
2022/09/10 03:07:59;;;;;;;16.92;8.85;;;;;;;15.11;100.00;100828.66;5094322;28;20036;-83
2022/09/10 03:10:24;;;;;;;19.98;8.32;;;;;;;15.07;100.00;100826.91;5093751;28;20161;-83
2022/09/10 03:12:50;;;;;;;15.95;8.02;;;;;;;15.12;100.00;100833.97;5094092;28;20058;-83
2022/09/10 03:15:19;;;;;;;14.43;8.30;;;;;;;15.11;100.00;100837.50;5093713;28;20153;-82
2022/09/10 03:17:45;;;;;;;17.63;8.68;;;;;;;15.11;100.00;100832.19;5093932;28;20085;-82
2022/09/10 03:20:10;;;;;;;18.45;8.52;;;;;;;15.13;100.00;100833.09;5093654;28;20028;-83
2022/09/10 03:22:37;;;;;;;21.00;8.48;;;;;;;15.14;100.00;100837.50;5093609;28;20373;-84
2022/09/10 03:25:03;;;;;;;19.55;8.55;;;;;;;15.14;100.00;100831.31;5093297;28;20397;-84
2022/09/10 03:27:29;;;;;;;18.90;7.80;;;;;;;15.15;100.00;100833.06;5093872;28;20066;-85
2022/09/10 03:29:54;;;;;;;16.90;8.63;;;;;;;15.08;100.00;100824.25;5093744;28;20115;-84
2022/09/10 03:32:20;;;;;;;16.50;8.65;;;;;;;15.11;100.00;100828.66;5093579;28;20071;-84
2022/09/10 03:34:45;;;;;;;20.27;9.02;;;;;;;15.14;100.00;100836.63;5093509;28;20032;-84
2022/09/10 03:37:10;;;;;;;18.63;9.27;;;;;;;15.15;100.00;100836.59;5093550;28;20032;-84
2022/09/10 03:39:36;;;;;;;18.65;9.25;;;;;;;15.10;100.00;100833.09;5093479;28;20090;-84
2022/09/10 03:42:03;;;;;;;18.10;9.05;;;;;;;15.15;100.00;100833.06;5093676;28;20089;-83
2022/09/10 03:44:30;;;;;;;15.18;8.95;;;;;;;15.15;100.00;100836.59;5093408;28;20474;-83
2022/09/10 03:46:56;;;;;;;21.83;9.55;;;;;;;15.09;100.00;100823.34;5093276;28;20077;-83
2022/09/10 03:49:21;;;;;;;17.63;9.88;;;;;;;15.13;100.00;100826.88;5094254;28;20036;-83
2022/09/10 03:51:47;;;;;;;19.65;9.43;;;;;;;15.11;100.00;100826.88;5093387;28;20028;-83
2022/09/10 03:54:13;;;;;;;17.17;9.65;;;;;;;15.13;100.00;100835.75;5075238;28;20032;-84
2022/09/10 03:56:38;;;;;;;15.40;9.38;;;;;;;15.12;100.00;100826.00;5093255;28;20036;-84
2022/09/10 03:59:04;;;;;;;17.58;9.88;;;;;;;15.15;100.00;100833.06;5093050;28;20093;-83
2022/09/10 04:01:29;;;;;;;16.40;9.73;;;;;;;15.12;100.00;100823.34;5093074;28;20069;-83
2022/09/10 04:03:55;;;;;;;18.23;10.18;;;;;;;15.14;100.00;100837.50;5093556;28;20438;-84
2022/09/10 04:06:21;;;;;;;17.65;10.98;;;;;;;15.14;100.00;100826.84;5093270;28;20114;-83
2022/09/10 04:08:51;;;;;;;16.80;9.82;;;;;;;15.10;100.00;100819.78;5093154;28;20118;-84
2022/09/10 04:11:17;;;;;;;20.40;9.98;;;;;;;15.15;100.00;100817.97;5093725;28;20362;-83
2022/09/10 04:13:44;;;;;;;17.95;11.10;;;;;;;15.14;100.00;100818.00;5093082;28;20111;-83
2022/09/10 04:16:10;;;;;;;18.40;9.90;;;;;;;15.10;100.00;100806.47;5093038;28;20462;-82
2022/09/10 04:18:36;;;;;;;19.15;10.32;;;;;;;15.16;100.00;100816.19;5093134;28;20072;-82
2022/09/10 04:21:01;;;;;;;17.63;9.73;;;;;;;15.16;100.00;100813.53;5093106;28;20032;-81
2022/09/10 04:23:28;;;;;;;18.88;10.02;;;;;;;15.19;100.00;100810.84;5093503;28;20069;-81
2022/09/10 04:25:54;;;;;;;18.75;10.43;;;;;;;15.17;100.00;100804.66;5093111;28;20036;-82
2022/09/10 04:28:19;;;;;;;19.80;10.90;;;;;;;15.15;100.00;100812.63;5093093;28;20059;-82
2022/09/10 04:30:45;;;;;;;18.23;10.50;;;;;;;15.16;100.00;100798.47;5093413;28;20458;-82
2022/09/10 04:33:12;;;;;;;20.42;10.77;;;;;;;15.16;100.00;100816.19;5093124;28;20121;-80
2022/09/10 04:35:38;;;;;;;17.83;10.43;;;;;;;15.18;100.00;100806.44;5092862;28;20032;-81
2022/09/10 04:38:04;;;;;;;17.45;10.13;;;;;;;15.15;100.00;100812.63;5093047;28;20071;-81
2022/09/10 04:40:30;;;;;;;20.40;10.23;;;;;;;15.20;100.00;100816.16;5076845;28;20096;-81
2022/09/10 04:42:55;;;;;;;22.60;10.88;;;;;;;15.21;100.00;100814.38;5096776;28;20067;-81
2022/09/10 04:45:21;;;;;;;16.38;9.80;;;;;;;15.20;100.00;100813.50;5096548;28;20362;-80
2022/09/10 04:47:46;;;;;;;15.88;9.98;;;;;;;15.19;100.00;100827.69;5096222;28;20034;-81
2022/09/10 04:50:14;;;;;;;19.65;10.73;;;;;;;15.17;100.00;100816.19;5096502;28;20474;-81
2022/09/10 04:52:40;;;;;;;20.48;11.15;;;;;;;15.20;100.00;100828.56;5097242;28;20058;-81
2022/09/10 04:55:06;;;;;;;18.65;11.43;;;;;;;15.20;100.00;100820.59;5078222;28;20028;-81
2022/09/10 04:57:32;;;;;;;18.92;11.35;;;;;;;15.21;100.00;100825.03;5096400;28;20040;-81
2022/09/10 04:59:57;;;;;;;22.17;10.63;;;;;;;15.22;100.00;100814.38;5096142;28;20062;-82
2022/09/10 05:02:22;;;;;;;21.50;11.20;;;;;;;15.19;100.00;100822.38;5096119;28;20122;-82
2022/09/10 05:04:49;;;;;;;18.05;10.57;;;;;;;15.20;100.00;100826.81;5096343;28;20056;-82
2022/09/10 05:07:15;;;;;;;14.73;10.43;;;;;;;15.20;100.00;100820.59;5095919;28;20032;-81
2022/09/10 05:09:40;;;;;;;22.50;11.93;;;;;;;15.21;100.00;100833.91;5095978;28;20028;-81
2022/09/10 05:12:05;;;;;;;21.25;11.88;;;;;;;15.23;100.00;100818.78;5095955;28;20484;-81
2022/09/10 05:14:32;;;;;;;21.98;11.85;;;;;;;15.19;100.00;100814.38;5096181;28;20028;-81
2022/09/10 05:16:58;;;;;;;20.50;11.75;;;;;;;15.24;100.00;100819.66;5096206;28;20040;-81
2022/09/10 05:19:24;;;;;;;22.98;12.20;;;;;;;15.22;100.00;100805.50;5095467;28;20043;-81
2022/09/10 05:21:49;;;;;;;21.67;12.48;;;;;;;15.25;100.00;100817.00;5095801;28;20028;-81
2022/09/10 05:24:15;;;;;;;22.17;12.05;;;;;;;15.24;100.00;100811.69;5095543;28;20047;-80
2022/09/10 05:26:41;;;;;;;22.00;11.63;;;;;;;15.20;100.00;100816.16;5095667;28;20035;-81
2022/09/10 05:29:06;;;;;;;21.52;13.10;;;;;;;15.18;100.00;100823.28;5097050;28;20122;-81
2022/09/10 05:31:34;;;;;;;25.98;11.98;;;;;;;15.21;100.00;100812.59;5095706;28;20059;-80
2022/09/10 05:34:00;;;;;;;23.95;12.55;;;;;;;15.25;100.00;100829.44;5096068;28;20052;-80
2022/09/10 05:36:26;;;;;;;20.50;12.60;;;;;;;15.25;100.00;100821.44;5095776;28;20028;-80
2022/09/10 05:38:53;;;;;;;19.38;12.85;;;;;;;15.23;100.00;100813.47;5096533;28;20064;-80
2022/09/10 05:41:20;;;;;;;22.08;12.82;;;;;;;15.25;100.00;100821.44;5095677;28;20031;-81
2022/09/10 05:43:46;;;;;;;25.75;13.93;;;;;;;15.26;100.00;100818.78;5095494;28;20036;-80
2022/09/10 05:46:11;;;;;;;24.08;13.23;;;;;;;15.27;100.00;100822.31;5095998;28;20032;-80
2022/09/10 05:48:39;;;;;;;20.40;12.88;;;;;;;15.33;100.00;100818.69;5095346;28;20081;-80
2022/09/10 05:51:04;;;;;;;20.67;13.85;;;;;;;15.27;100.00;100819.66;5094559;28;20032;-80
2022/09/10 05:53:29;;;;;;;20.65;13.25;;;;;;;15.32;100.00;100827.59;5095299;28;20028;-80
2022/09/10 05:55:55;;;;;;;22.08;13.45;;;;;;;15.37;100.00;100823.09;5094963;28;20028;-80
2022/09/10 05:58:20;;;;;;;20.25;13.25;;;;;;;15.38;100.00;100827.56;5095168;28;20032;-80
2022/09/10 06:00:49;;;;;;;20.15;12.93;;;;;;;15.40;100.00;100831.94;5094936;28;20101;-80
2022/09/10 06:03:15;;;;;;;22.60;14.43;;;;;;;15.41;100.00;100820.38;5095412;28;20115;-80
2022/09/10 06:05:47;;;;;;;22.08;13.40;;;;;;;15.37;100.00;100823.97;5095497;28;20093;-80
2022/09/10 06:08:14;;;;;;;20.83;13.65;;;;;;;15.44;100.00;100830.16;5094956;28;20040;-81
2022/09/10 06:10:40;;;;;;;26.08;14.48;;;;;;;15.41;100.00;100824.84;5095375;28;20129;-81
2022/09/10 06:13:05;;;;;;;23.10;14.90;;;;;;;15.42;100.00;100830.16;5095222;28;20035;-82
2022/09/10 06:15:34;;;;;;;23.10;13.80;;;;;;;15.41;100.00;100833.72;5094834;28;20032;-81
2022/09/10 06:18:00;;;;;;;17.42;12.32;;;;;;;15.47;100.00;100846.09;5094839;28;20453;-80
2022/09/10 06:20:26;;;;;;;24.08;14.82;;;;;;;15.43;100.00;100828.38;5098273;28;20032;-80
2022/09/10 06:22:52;;;;;;;24.13;13.57;;;;;;;15.48;100.00;100843.41;5097558;28;20107;-81
2022/09/10 06:25:17;;;;;;;17.55;12.68;;;;;;;15.47;100.00;100836.34;5096282;28;20052;-83
2022/09/10 06:27:43;;;;;;;18.20;13.02;;;;;;;15.45;100.00;100829.25;5096704;28;20469;-82
2022/09/10 06:30:09;;;;;;;20.15;12.88;;;;;;;15.47;100.00;100839.00;5096725;28;20032;-83
2022/09/10 06:32:34;;;;;;;17.88;12.93;;;;;;;15.44;100.00;100820.38;5095812;28;20041;-83
2022/09/10 06:34:59;;;;;;;21.17;12.68;;;;;;;15.46;100.00;100825.66;5094986;28;20403;-83
2022/09/10 06:37:25;;;;;;;20.40;13.65;;;;;;;15.41;100.00;100827.50;5094339;28;20089;-83
2022/09/10 06:39:51;;;;;;;17.13;13.35;;;;;;;15.47;100.00;100841.66;5094204;28;20454;-82
2022/09/10 06:42:16;;;;;;;18.33;13.80;;;;;;;15.47;100.00;100848.75;5094528;28;20043;-83
2022/09/10 06:44:43;;;;;;;19.92;13.90;;;;;;;15.45;100.00;100846.09;5076627;28;20071;-82
2022/09/10 06:47:08;;;;;;;22.40;15.43;;;;;;;15.45;100.00;100843.44;5094081;28;20047;-82
2022/09/10 06:49:35;;;;;;;21.17;15.13;;;;;;;15.50;100.00;100846.97;5093833;28;20466;-82
2022/09/10 06:52:01;;;;;;;21.02;15.27;;;;;;;15.44;100.00;100839.00;5094175;28;20032;-82
2022/09/10 06:54:26;;;;;;;22.95;16.00;;;;;;;15.52;100.00;100850.47;5094385;28;20039;-82
2022/09/10 06:56:51;;;;;;;20.73;15.00;;;;;;;15.52;100.00;100852.25;5076404;28;20420;-83
2022/09/10 06:59:17;;;;;;;18.35;14.13;;;;;;;15.49;100.00;100845.16;5094279;28;20097;-83
2022/09/10 07:01:43;;;;;;;20.73;14.68;;;;;;;15.56;100.00;100853.13;5075559;28;20047;-83
2022/09/10 07:04:08;;;;;;;20.67;14.95;;;;;;;15.58;100.00;100852.19;5093208;28;20036;-83
2022/09/10 07:06:35;;;;;;;21.48;15.55;;;;;;;15.58;100.00;100851.31;5093717;28;20036;-82
2022/09/10 07:09:02;;;;;;;19.20;15.50;;;;;;;15.59;100.00;100855.72;5093969;28;20028;-82
2022/09/10 07:11:29;;;;;;;19.63;15.05;;;;;;;15.61;100.00;100852.16;5094250;28;20592;-82
2022/09/10 07:13:54;;;;;;;23.95;16.38;;;;;;;15.56;100.00;100846.00;5093303;28;20485;-83
2022/09/10 07:16:22;;;;;;;21.42;15.48;;;;;;;15.60;100.00;100850.41;5093463;28;20032;-82
2022/09/10 07:18:55;;;;;;;21.88;16.30;;;;;;;15.61;100.00;100856.63;5093848;28;20035;-82
2022/09/10 07:21:22;;;;;;;21.63;15.27;;;;;;;15.67;100.00;100856.56;5093691;28;20039;-84
2022/09/10 07:23:50;;;;;;;21.50;15.18;;;;;;;15.71;100.00;100855.66;5093543;28;20101;-84
2022/09/10 07:26:18;;;;;;;20.77;14.80;;;;;;;15.68;100.00;100856.59;5075181;28;20036;-81
2022/09/10 07:28:44;;;;;;;18.13;13.77;;;;;;;15.76;100.00;100870.72;5093248;28;20458;-80
2022/09/10 07:31:21;;;;;;;17.45;13.23;;;;;;;15.76;100.00;100856.50;5075017;28;20115;-80
2022/09/10 07:33:47;;;;;;;18.50;13.35;;;;;;;15.73;100.00;100865.41;5093980;28;20035;-81
2022/09/10 07:36:13;;;;;;;14.65;12.98;;;;;;;15.68;100.00;100864.56;5093376;28;20032;-80
2022/09/10 07:38:40;;;;;;;15.07;13.07;;;;;;;15.72;100.00;100873.44;5093542;28;20119;-80
2022/09/10 07:41:09;;;;;;;16.20;13.25;;;;;;;15.72;100.00;100868.97;5075337;28;20060;-79
2022/09/10 07:43:35;;;;;;;18.90;13.20;;;;;;;15.74;100.00;100867.16;5093557;28;20059;-84
2022/09/10 07:46:01;;;;;;;15.82;14.13;;;;;;;15.74;100.00;100861.84;5093373;28;20445;-85
2022/09/10 07:48:27;;;;;;;18.08;14.05;;;;;;;15.76;100.00;100861.84;5093379;28;20032;-85
2022/09/10 07:51:00;;;;;;;16.98;14.25;;;;;;;15.80;100.00;100860.00;5093425;28;20539;-84
2022/09/10 07:53:25;;;;;;;17.73;14.52;;;;;;;15.81;100.00;100864.44;5093539;28;20351;-85
2022/09/10 07:55:58;;;;;;;20.20;13.93;;;;;;;15.84;100.00;100870.59;5093337;28;20050;-85
2022/09/10 07:58:23;;;;;;;16.95;13.75;;;;;;;15.91;100.00;100877.66;5093883;28;20042;-84
2022/09/10 08:00:49;;;;;;;17.05;14.52;;;;;;;15.94;100.00;100884.75;5095023;28;20138;-85
2022/09/10 08:03:17;;;;;;;18.65;15.25;;;;;;;15.97;100.00;100884.69;5093191;28;20032;-84
2022/09/10 08:05:42;;;;;;;17.17;14.70;;;;;;;15.96;100.00;100883.81;5093426;28;20043;-84
2022/09/10 08:08:09;;;;;;;18.38;15.13;;;;;;;16.01;100.00;100886.41;5093303;28;20032;-83
2022/09/10 08:10:34;;;;;;;17.40;14.95;;;;;;;16.04;100.00;100886.41;5093706;28;20067;-83
2022/09/10 08:13:00;;;;;;;18.42;16.02;;;;;;;16.05;100.00;100893.47;5092857;28;20060;-83
2022/09/10 08:15:25;;;;;;;21.15;16.00;;;;;;;16.09;100.00;100887.22;5094846;28;20036;-84
2022/09/10 08:17:51;;;;;;;19.08;16.88;;;;;;;16.21;100.00;100900.41;5097025;28;20481;-84
2022/09/10 08:20:16;;;;;;;18.65;16.48;;;;;;;16.29;100.00;100892.34;5079011;28;20028;-84
2022/09/10 08:22:42;;;;;;;20.42;16.30;;;;;;;16.37;100.00;100902.91;5078771;28;20040;-83
2022/09/10 08:25:07;;;;;;;19.98;17.23;;;;;;;16.42;100.00;100901.94;5096860;28;20052;-83
2022/09/10 08:27:34;;;;;;;20.63;16.45;;;;;;;16.47;100.00;100897.44;5096340;28;20036;-82
2022/09/10 08:30:00;;;;;;;23.52;16.88;;;;;;;16.44;100.00;100901.91;5096726;28;20040;-82
2022/09/10 08:32:26;;;;;;;22.27;17.48;;;;;;;16.51;100.00;100917.81;5096721;28;20116;-82
2022/09/10 08:34:52;;;;;;;21.30;17.13;;;;;;;16.55;100.00;100918.69;5096583;28;20028;-82
2022/09/10 08:37:17;;;;;;;20.50;17.65;;;;;;;16.52;100.00;100902.69;5096871;28;20393;-83
2022/09/10 08:39:43;;;;;;;20.77;17.15;;;;;;;16.67;100.00;100925.66;5096470;28;20465;-83
2022/09/10 08:42:18;;;;;;;18.83;15.93;;;;;;;16.72;99.72;100938.06;5078513;28;20036;-83
2022/09/10 08:45:08;;;;;;;19.23;17.15;;;;;;;16.79;100.00;100928.19;5097146;28;20035;-82
2022/09/10 08:48:00;;;;;;;21.05;16.25;;;;;;;16.87;99.82;100930.72;5096711;28;20105;-82
2022/09/10 08:50:59;;;;;;;17.65;15.73;;;;;;;16.92;99.04;100943.13;5096489;28;20067;-83
2022/09/10 08:53:24;;;;;;;17.08;14.80;;;;;;;16.98;98.71;100947.50;5097179;28;20408;-84
2022/09/10 08:55:56;;;;;;;16.67;13.32;;;;;;;17.02;98.54;100941.22;5096378;28;20024;-83
2022/09/10 08:58:31;;;;;;;16.35;13.73;;;;;;;17.08;98.48;100949.13;5096952;28;20046;-82
2022/09/10 09:01:03;;;;;;;16.00;13.80;;;;;;;17.11;98.79;100943.75;5096104;28;20040;-82
2022/09/10 09:03:46;;;;;;;16.88;13.80;;;;;;;17.18;98.81;100956.09;5096185;28;20024;-83
2022/09/10 09:06:40;;;;;;;;;;;;;;;17.22;98.25;100957.84;5096325;28;20390;-84
2022/09/10 09:09:06;;;;;;;15.65;12.82;;;;;;;17.12;98.22;100956.19;5074750;28;19957;-83
2022/09/10 09:12:04;;;;;;;15.32;11.52;;;;;;;17.13;97.95;100957.06;5096025;28;20028;-83
2022/09/10 09:14:52;;;;;;;13.30;11.57;;;;;;;17.05;98.52;100959.00;5095922;28;20032;-82
2022/09/10 09:17:50;;;;;;;14.50;11.57;;;;;;;17.03;98.99;100961.66;5096157;28;20028;-82
2022/09/10 09:20:24;;;;;;;15.75;11.10;;;;;;;16.93;98.30;100957.34;5056139;28;20420;-84
2022/09/10 09:22:55;;;;;;;13.68;11.07;;;;;;;16.86;99.43;100955.66;5096431;28;20028;-84
2022/09/10 09:25:47;;;;;;;14.15;12.02;;;;;;;16.87;99.98;100963.63;5096500;28;20032;-85
2022/09/10 09:28:27;;;;;;;17.50;11.67;;;;;;;16.85;100.00;100956.56;5095821;28;20035;-84
2022/09/10 09:30:56;;;;;;;15.75;12.27;;;;;;;16.87;100.00;100962.75;5095356;28;20016;-85
2022/09/10 09:33:23;;;;;;;18.23;12.52;;;;;;;16.87;100.00;100955.63;5095690;28;20030;-85
2022/09/10 09:35:59;;;;;;;16.83;12.63;;;;;;;16.91;100.00;100956.47;5095204;28;20035;-84
2022/09/10 09:38:34;;;;;;;18.10;13.20;;;;;;;17.03;100.00;100962.53;5095710;28;20036;-84
2022/09/10 09:41:06;;;;;;;18.73;13.88;;;;;;;16.98;99.46;100964.38;5096022;28;20024;-84
2022/09/10 09:43:41;;;;;;;;;;;;;;;17.10;99.00;100968.69;5096355;28;20031;-83
2022/09/10 09:46:15;;;;;;;21.45;12.98;;;;;;;17.07;98.94;100976.72;5095294;28;19970;-83
2022/09/10 09:48:41;;;;;;;18.30;12.75;;;;;;;17.15;99.65;100972.16;5095461;28;20032;-83
2022/09/10 09:51:14;;;;;;;17.77;13.38;;;;;;;17.19;99.93;100965.00;5095134;28;20115;-84
2022/09/10 09:53:39;;;;;;;17.25;13.43;;;;;;;17.22;99.38;100963.19;5095183;28;20024;-83
2022/09/10 09:56:14;;;;;;;17.83;13.35;;;;;;;17.27;99.41;100976.47;5095571;28;20035;-83
2022/09/10 09:58:46;;;;;;;17.27;12.63;;;;;;;17.26;98.86;100966.69;5095530;28;20119;-83
2022/09/10 10:01:15;;;;;;;15.23;12.40;;;;;;;17.34;99.23;100963.88;5095749;28;20055;-83
2022/09/10 10:03:57;;;;;;;20.25;12.80;;;;;;;17.39;100.00;100970.94;5094865;28;20385;-83
2022/09/10 10:06:25;;;;;;;18.95;12.48;;;;;;;17.45;99.15;100960.13;5095027;28;20024;-83
2022/09/10 10:08:55;;;;;;;17.00;13.32;;;;;;;17.48;98.81;100956.56;5094915;28;20035;-82
2022/09/10 10:11:21;;;;;;;20.58;12.60;;;;;;;17.50;99.37;100944.03;5094343;28;20039;-82
2022/09/10 10:13:51;;;;;;;17.77;12.55;;;;;;;17.53;99.19;100952.88;5095598;28;20381;-82
2022/09/10 10:16:21;;;;;;;15.55;12.13;;;;;;;17.70;99.39;100974.00;5076293;28;20035;-82
2022/09/10 10:18:48;;;;;;;14.80;11.88;;;;;;;17.80;99.52;101001.47;5094951;28;20044;-82
2022/09/10 10:21:13;;;;;;;16.02;11.32;;;;;;;17.88;98.49;100986.19;5094835;28;20032;-82
2022/09/10 10:23:39;;;;;;;15.43;11.35;;;;;;;17.96;98.33;100986.06;5094392;28;20077;-82
2022/09/10 10:26:20;;;;;;;15.27;10.80;;;;;;;18.04;97.34;100985.94;5097229;28;20056;-82
2022/09/10 10:28:49;;;;;;;15.23;10.70;;;;;;;18.04;96.67;100988.63;5077954;28;20542;-83
2022/09/10 10:31:15;;;;;;;19.88;11.18;;;;;;;18.07;96.52;100980.50;5094334;28;20028;-83
2022/09/10 10:34:08;;;;;;;14.45;10.18;;;;;;;18.04;95.97;100978.81;5094521;28;20063;-83
2022/09/10 10:36:57;;;;;;;11.15;9.00;;;;;;;18.04;95.89;100975.25;5094853;28;20028;-83
2022/09/10 10:39:28;;;;;;;15.30;9.80;;;;;;;18.00;96.10;100982.44;5080201;28;20072;-83
2022/09/10 10:42:03;;;;;;;13.38;9.35;;;;;;;18.00;96.55;100990.47;5095040;28;20109;-83
2022/09/10 10:44:40;;;;;;;16.50;10.40;;;;;;;17.99;96.29;100994.94;5094611;28;20089;-83
2022/09/10 10:47:32;;;;;;;12.63;9.50;;;;;;;17.96;96.44;100986.06;5094399;28;20032;-83
2022/09/10 10:50:17;;;;;;;12.35;9.02;;;;;;;17.86;95.80;100995.13;5094394;28;20040;-83
2022/09/10 10:53:10;;;;;;;14.13;9.73;;;;;;;17.85;96.41;100996.94;5094835;28;20028;-82
2022/09/10 10:55:35;;;;;;;12.73;9.82;;;;;;;17.82;96.39;100991.66;5094531;28;20031;-82
2022/09/10 10:58:37;;;;;;;12.38;9.57;;;;;;;17.80;96.89;100987.22;5094132;28;20035;-83
2022/09/10 11:01:25;;;;;;;15.00;9.38;;;;;;;17.77;97.22;100989.06;5041098;28;20084;-83
2022/09/10 11:04:08;;;;;;;14.57;8.95;;;;;;;17.76;97.27;100999.75;5094021;28;20020;-84
2022/09/10 11:06:39;;;;;;;13.90;8.35;;;;;;;17.67;96.95;100987.41;5094145;28;20061;-84
2022/09/10 11:09:18;;;;;;;14.23;8.27;;;;;;;17.68;97.33;100997.16;5094244;28;20107;-84
2022/09/10 11:11:55;;;;;;;12.18;7.70;;;;;;;17.68;97.42;101010.53;5094016;28;20039;-84
2022/09/10 11:14:31;;;;;;;13.75;7.82;;;;;;;17.66;97.71;101004.34;5093980;28;20457;-86
2022/09/10 11:17:04;;;;;;;14.43;7.40;;;;;;;17.61;98.38;101002.66;5094126;28;20052;-89
2022/09/10 11:19:34;;;;;;;11.65;7.50;;;;;;;17.53;98.52;101009.00;5093917;28;20051;-88
2022/09/10 11:22:09;;;;;;;11.05;6.68;;;;;;;17.55;98.42;100998.28;5093847;28;20024;-88